createdAt,value
2022-08-04T00:02:13.345Z,1.00
2022-08-04T00:04:39.908Z,1.00
2022-08-04T00:07:06.487Z,1.00
2022-08-04T00:09:59.814Z,1.00
2022-08-04T00:12:31.537Z,1.00
2022-08-04T00:15:00.011Z,1.00
2022-08-04T00:17:31.802Z,1.00
2022-08-04T00:20:00.085Z,1.00
2022-08-04T00:22:30.260Z,1.00
2022-08-04T00:24:57.213Z,1.00
2022-08-04T00:27:24.047Z,1.00
2022-08-04T00:29:53.058Z,1.00
2022-08-04T00:32:31.122Z,1.00
2022-08-04T00:35:01.822Z,1.00
2022-08-04T00:37:29.031Z,1.00
2022-08-04T00:39:56.350Z,1.00
2022-08-04T00:42:58.685Z,1.00
2022-08-04T00:46:10.573Z,1.00
2022-08-04T00:48:41.178Z,1.00
2022-08-04T00:51:14.136Z,1.00
2022-08-04T00:53:50.472Z,1.00
2022-08-04T00:56:35.579Z,1.00
2022-08-04T00:59:08.308Z,1.00
2022-08-04T01:01:43.968Z,1.00
2022-08-04T01:04:15.059Z,1.00
2022-08-04T01:07:08.414Z,1.00
2022-08-04T01:09:34.996Z,1.00
2022-08-04T01:12:04.419Z,1.00
2022-08-04T01:14:40.188Z,1.00
2022-08-04T01:17:20.324Z,1.00
2022-08-04T01:19:56.260Z,1.00
2022-08-04T01:22:22.868Z,1.00
2022-08-04T01:25:08.396Z,1.00
2022-08-04T01:27:50.952Z,1.00
2022-08-04T01:30:18.277Z,1.30
2022-08-04T01:32:48.655Z,1.40
2022-08-04T01:35:46.711Z,2.50
2022-08-04T01:38:20.913Z,3.80
2022-08-04T01:40:51.778Z,3.70
2022-08-04T01:43:19.394Z,3.60
2022-08-04T01:45:49.533Z,6.30
2022-08-04T01:48:17.442Z,8.60
2022-08-04T01:50:44.656Z,8.50
2022-08-04T01:53:11.327Z,8.50
2022-08-04T01:55:55.048Z,7.40
2022-08-04T01:58:23.380Z,8.40
2022-08-04T02:01:08.734Z,10.20
2022-08-04T02:04:22.257Z,12.00
2022-08-04T02:06:29.339Z,10.80
2022-08-04T02:08:58.908Z,12.30
2022-08-04T02:11:25.494Z,13.20
2022-08-04T02:13:52.014Z,13.10
2022-08-04T02:16:29.381Z,13.10
2022-08-04T02:19:14.976Z,11.00
2022-08-04T02:21:42.328Z,12.40
2022-08-04T02:24:13.610Z,13.00
2022-08-04T02:26:41.780Z,14.30
2022-08-04T02:29:08.333Z,15.00
2022-08-04T02:31:44.427Z,14.10
2022-08-04T02:34:37.152Z,14.50
2022-08-04T02:37:04.146Z,14.60
2022-08-04T02:39:48.009Z,13.60
2022-08-04T02:42:16.645Z,12.40
2022-08-04T02:44:43.554Z,13.90
2022-08-04T02:47:10.986Z,15.10
2022-08-04T02:49:37.594Z,15.70
2022-08-04T02:52:10.193Z,17.10
2022-08-04T02:54:39.636Z,14.90
2022-08-04T02:57:09.809Z,13.90
2022-08-04T02:59:59.820Z,16.40
2022-08-04T03:02:39.764Z,14.80
2022-08-04T03:05:16.503Z,14.80
2022-08-04T03:08:04.101Z,14.50
2022-08-04T03:10:49.320Z,13.70
2022-08-04T03:13:36.973Z,14.80
2022-08-04T03:16:22.391Z,16.20
2022-08-04T03:19:04.490Z,14.90
2022-08-04T03:21:50.986Z,17.30
2022-08-04T03:24:32.397Z,17.20
2022-08-04T03:27:11.329Z,17.20
2022-08-04T03:29:56.634Z,17.20
2022-08-04T03:32:29.247Z,17.20
2022-08-04T03:35:14.665Z,15.60
2022-08-04T03:37:49.610Z,14.00
2022-08-04T03:40:36.972Z,14.10
2022-08-04T03:43:09.791Z,16.20
2022-08-04T03:45:56.311Z,15.70
2022-08-04T03:48:25.923Z,12.30
2022-08-04T03:51:35.215Z,12.30
2022-08-04T03:54:15.425Z,14.40
2022-08-04T03:57:00.994Z,17.10
2022-08-04T03:59:48.727Z,17.20
2022-08-04T04:02:34.514Z,17.10
2022-08-04T04:05:16.078Z,13.50
2022-08-04T04:08:03.953Z,15.70
2022-08-04T04:10:41.535Z,15.00
2022-08-04T04:13:26.969Z,14.70
2022-08-04T04:16:12.675Z,14.80
2022-08-04T04:18:51.897Z,14.70
2022-08-04T04:21:35.825Z,17.10
2022-08-04T04:24:05.905Z,19.00
2022-08-04T04:26:39.079Z,17.10
2022-08-04T04:29:20.710Z,19.50
2022-08-04T04:32:03.254Z,14.10
2022-08-04T04:34:35.970Z,12.30
2022-08-04T04:37:08.380Z,11.70
2022-08-04T04:39:44.078Z,11.10
2022-08-04T04:42:23.015Z,11.00
2022-08-04T04:44:52.675Z,11.30
2022-08-04T04:48:07.144Z,9.50
2022-08-04T04:50:28.594Z,7.90
2022-08-04T04:53:10.954Z,8.20
2022-08-04T04:55:56.307Z,8.90
2022-08-04T04:58:24.003Z,6.50
2022-08-04T05:01:10.638Z,5.90
2022-08-04T05:04:03.703Z,4.80
2022-08-04T05:06:41.498Z,3.70
2022-08-04T05:09:26.836Z,3.80
2022-08-04T05:11:59.886Z,2.10
2022-08-04T05:14:41.123Z,2.10
2022-08-04T05:17:22.265Z,1.00
2022-08-04T05:19:55.295Z,1.20
2022-08-04T05:22:32.690Z,1.00
2022-08-04T05:25:04.856Z,1.00
2022-08-04T05:27:39.796Z,1.00
2022-08-04T05:30:07.844Z,1.00
2022-08-04T05:32:38.120Z,1.00
2022-08-04T05:35:07.375Z,1.00
2022-08-04T05:37:34.931Z,1.00
2022-08-04T05:40:05.728Z,1.00
2022-08-04T05:42:34.647Z,1.00
2022-08-04T05:45:02.198Z,1.00
2022-08-04T05:47:29.315Z,1.00
2022-08-04T05:50:02.130Z,1.00
2022-08-04T05:52:30.957Z,1.00
2022-08-04T05:54:58.456Z,1.00
2022-08-04T05:57:25.527Z,1.00
2022-08-04T05:59:52.301Z,1.00
2022-08-04T06:02:19.713Z,1.00
2022-08-04T06:04:48.872Z,1.00
2022-08-04T06:07:15.568Z,1.00
2022-08-04T06:09:42.409Z,1.00
2022-08-04T06:12:10.985Z,1.00
2022-08-04T06:14:41.964Z,1.00
2022-08-04T06:18:33.713Z,1.00
2022-08-04T06:20:18.252Z,1.00
2022-08-04T06:22:45.949Z,1.00
2022-08-04T06:25:15.638Z,1.00
2022-08-04T06:27:43.026Z,1.00
2022-08-04T06:30:14.234Z,1.00
2022-08-04T06:33:03.458Z,1.00
2022-08-04T06:35:31.321Z,1.00
2022-08-04T06:38:01.035Z,1.00
2022-08-04T06:40:31.178Z,1.00
2022-08-04T06:43:03.661Z,1.00
2022-08-04T06:45:31.179Z,1.00
2022-08-04T06:47:58.334Z,1.00
2022-08-04T06:51:31.339Z,1.00
2022-08-04T06:53:12.041Z,1.00
2022-08-04T06:55:39.080Z,1.00
2022-08-04T06:58:06.227Z,1.00
2022-08-04T07:00:34.275Z,1.00
2022-08-04T07:03:01.511Z,1.00
2022-08-04T07:05:28.308Z,1.00
2022-08-04T07:07:58.091Z,1.00
2022-08-04T07:10:27.645Z,1.00
2022-08-04T07:12:55.555Z,1.00
2022-08-04T07:15:22.802Z,1.00
2022-08-04T07:17:50.267Z,1.00
2022-08-04T07:20:30.525Z,1.00
2022-08-04T07:23:04.304Z,1.00
2022-08-04T07:25:59.021Z,1.00
2022-08-04T07:28:17.615Z,1.00
2022-08-04T07:30:44.828Z,1.00
2022-08-04T07:33:11.788Z,1.00
2022-08-04T07:36:04.426Z,1.00
2022-08-04T07:38:27.519Z,1.00
2022-08-04T07:40:55.239Z,1.00
2022-08-04T07:43:22.468Z,1.00
2022-08-04T07:45:49.095Z,1.00
2022-08-04T07:48:18.610Z,1.00
2022-08-04T07:50:45.432Z,1.00
2022-08-04T07:53:54.442Z,1.00
2022-08-04T07:55:59.801Z,1.00
2022-08-04T07:58:30.097Z,1.00
2022-08-04T08:00:57.508Z,1.00
2022-08-04T08:03:24.578Z,1.00
2022-08-04T08:06:16.739Z,1.00
2022-08-04T08:08:39.525Z,1.00
2022-08-04T08:11:07.051Z,1.00
2022-08-04T08:13:34.396Z,1.00
2022-08-04T08:16:01.380Z,1.00
2022-08-04T08:18:28.090Z,1.00
2022-08-04T08:20:55.392Z,1.00
2022-08-04T08:23:22.280Z,1.00
2022-08-04T08:25:49.541Z,1.00
2022-08-04T08:28:17.338Z,1.00
2022-08-04T08:30:43.895Z,1.00
2022-08-04T08:33:12.643Z,1.00
2022-08-04T08:35:47.319Z,1.00
2022-08-04T08:38:25.568Z,1.00
2022-08-04T08:41:10.888Z,1.00
2022-08-04T08:44:05.034Z,1.00
2022-08-04T08:46:54.253Z,1.00
2022-08-04T08:50:00.487Z,1.00
2022-08-04T08:53:00.643Z,1.00
2022-08-04T08:55:22.762Z,1.00
2022-08-04T08:57:59.404Z,1.00
2022-08-04T09:00:45.494Z,1.00
2022-08-04T09:03:12.071Z,1.00
2022-08-04T09:05:47.101Z,1.00
2022-08-04T09:08:33.921Z,1.00
2022-08-04T09:11:08.772Z,1.00
2022-08-04T09:13:38.672Z,1.00
2022-08-04T09:16:11.927Z,1.00
2022-08-04T09:18:41.544Z,1.00
2022-08-04T09:21:26.465Z,1.00
2022-08-04T09:24:35.517Z,1.00
2022-08-04T09:27:01.541Z,1.00
2022-08-04T09:29:32.913Z,1.00
2022-08-04T09:32:07.492Z,1.00
2022-08-04T09:34:46.795Z,1.00
2022-08-04T09:37:45.904Z,1.00
2022-08-04T09:40:29.191Z,1.00
2022-08-04T09:43:17.085Z,1.00
2022-08-04T09:45:50.976Z,1.00
2022-08-04T09:48:28.293Z,1.00
2022-08-04T09:50:59.050Z,1.00
2022-08-04T09:53:44.672Z,1.00
2022-08-04T09:56:18.320Z,1.00
2022-08-04T09:59:03.780Z,1.00
2022-08-04T10:01:30.948Z,1.00
2022-08-04T10:04:02.672Z,1.00
2022-08-04T10:06:38.163Z,1.00
2022-08-04T10:09:12.673Z,1.00
2022-08-04T10:11:57.309Z,1.00
2022-08-04T10:14:23.867Z,1.00
2022-08-04T10:16:58.537Z,1.00
2022-08-04T10:19:38.817Z,1.00
2022-08-04T10:22:28.462Z,1.00
2022-08-04T10:25:40.431Z,1.00
2022-08-04T10:28:00.122Z,1.00
2022-08-04T10:30:28.574Z,1.00
2022-08-04T10:32:55.152Z,1.00
2022-08-04T10:35:23.580Z,1.00
2022-08-04T10:38:08.776Z,1.00
2022-08-04T10:40:50.486Z,1.00
2022-08-04T10:43:35.179Z,1.00
2022-08-04T10:46:01.711Z,1.00
2022-08-04T10:48:45.636Z,1.00
2022-08-04T10:51:25.706Z,1.00
2022-08-04T10:54:03.200Z,1.00
2022-08-04T10:56:41.745Z,1.00
2022-08-04T10:59:10.467Z,1.00
2022-08-04T11:02:01.954Z,1.00
2022-08-04T11:04:47.494Z,1.00
2022-08-04T11:07:14.641Z,1.00
2022-08-04T11:09:43.066Z,1.00
2022-08-04T11:12:24.265Z,1.00
2022-08-04T11:15:04.652Z,1.00
2022-08-04T11:17:48.308Z,1.00
2022-08-04T11:20:34.981Z,1.00
2022-08-04T11:23:09.777Z,1.00
2022-08-04T11:25:41.643Z,1.00
2022-08-04T11:28:14.107Z,1.00
2022-08-04T11:30:46.161Z,1.00
2022-08-04T11:33:18.794Z,1.00
2022-08-04T11:35:50.324Z,1.00
2022-08-04T11:38:21.998Z,1.00
2022-08-04T11:41:02.156Z,1.00
2022-08-04T11:44:00.474Z,1.00
2022-08-04T11:46:29.046Z,1.00
2022-08-04T11:49:05.547Z,1.00
2022-08-04T11:51:32.885Z,1.00
2022-08-04T11:54:00.405Z,1.00
2022-08-04T11:56:35.885Z,1.00
2022-08-04T11:59:05.064Z,1.00
2022-08-04T12:01:35.665Z,1.00
2022-08-04T12:04:08.699Z,1.00
2022-08-04T12:07:04.671Z,1.00
2022-08-04T12:09:58.509Z,1.00
2022-08-04T12:12:28.112Z,1.00
2022-08-04T12:15:10.804Z,1.00
2022-08-04T12:18:00.506Z,1.00
2022-08-04T12:20:40.561Z,1.00
2022-08-04T12:23:14.824Z,1.00
2022-08-04T12:25:45.251Z,1.00
2022-08-04T12:28:25.021Z,1.00
2022-08-04T12:31:01.385Z,1.00
2022-08-04T12:34:03.292Z,1.00
2022-08-04T12:36:25.703Z,1.00
2022-08-04T12:38:58.601Z,1.00
2022-08-04T12:41:28.161Z,1.00
2022-08-04T12:43:55.615Z,1.00
2022-08-04T12:46:23.566Z,1.00
2022-08-04T12:48:50.845Z,1.00
2022-08-04T12:52:06.312Z,1.00
2022-08-04T12:54:05.848Z,1.00
2022-08-04T12:56:33.564Z,1.00
2022-08-04T12:59:02.287Z,1.00
2022-08-04T13:02:09.337Z,1.00
2022-08-04T13:04:18.058Z,1.00
2022-08-04T13:06:44.765Z,1.00
2022-08-04T13:09:18.469Z,1.00
2022-08-04T13:11:50.598Z,1.00
2022-08-04T13:14:27.079Z,1.00
2022-08-04T13:17:01.234Z,1.00
2022-08-04T13:19:29.153Z,1.00
2022-08-04T13:22:03.115Z,1.00
2022-08-04T13:24:32.478Z,1.00
2022-08-04T13:27:03.708Z,1.00
2022-08-04T13:30:25.159Z,1.00
2022-08-04T13:32:28.642Z,1.00
2022-08-04T13:34:55.861Z,1.00
2022-08-04T13:37:26.829Z,1.00
2022-08-04T13:39:55.232Z,1.00
2022-08-04T13:42:22.349Z,1.00
2022-08-04T13:44:53.300Z,1.00
2022-08-04T13:47:22.236Z,1.00
2022-08-04T13:50:11.828Z,1.00
2022-08-04T13:52:39.673Z,1.00
2022-08-04T13:55:06.881Z,1.00
2022-08-04T13:57:36.589Z,1.00
2022-08-04T14:00:06.375Z,1.00
2022-08-04T14:02:42.519Z,1.00
2022-08-04T14:05:18.346Z,1.00
2022-08-04T14:07:47.606Z,1.00
2022-08-04T14:10:14.666Z,1.00
2022-08-04T14:12:47.154Z,1.00
2022-08-04T14:16:00.955Z,1.00
2022-08-04T14:18:23.157Z,1.00
2022-08-04T14:21:10.641Z,1.00
2022-08-04T14:23:51.166Z,1.00
2022-08-04T14:26:17.780Z,1.00
2022-08-04T14:29:25.272Z,1.00
2022-08-04T14:31:31.533Z,1.00
2022-08-04T14:34:04.716Z,1.00
2022-08-04T14:37:13.320Z,1.00
2022-08-04T14:39:40.228Z,1.00
2022-08-04T14:42:07.172Z,1.00
2022-08-04T14:44:52.328Z,1.00
2022-08-04T14:47:19.102Z,1.00
2022-08-04T14:49:55.892Z,1.00
2022-08-04T14:52:23.615Z,1.00
2022-08-04T14:54:50.373Z,1.00
2022-08-04T14:57:17.070Z,1.00
2022-08-04T14:59:59.157Z,1.00
2022-08-04T15:02:29.818Z,1.00
2022-08-04T15:04:57.114Z,1.00
2022-08-04T15:07:23.673Z,1.00
2022-08-04T15:09:50.558Z,1.00
2022-08-04T15:12:17.313Z,1.00
2022-08-04T15:14:44.928Z,1.00
2022-08-04T15:17:29.018Z,1.00
2022-08-04T15:19:56.787Z,1.00
2022-08-04T15:22:23.570Z,1.00
2022-08-04T15:24:54.815Z,1.00
2022-08-04T15:27:24.295Z,1.00
2022-08-04T15:30:00.584Z,1.00
2022-08-04T15:32:29.529Z,1.00
2022-08-04T15:35:01.743Z,1.00
2022-08-04T15:37:29.937Z,1.00
2022-08-04T15:40:11.639Z,1.00
2022-08-04T15:42:57.158Z,1.00
2022-08-04T15:46:33.274Z,1.00
2022-08-04T15:48:22.784Z,1.00
2022-08-04T15:51:00.207Z,1.00
2022-08-04T15:53:36.508Z,1.00
2022-08-04T15:56:34.480Z,1.00
2022-08-04T15:59:01.088Z,1.00
2022-08-04T16:01:28.023Z,1.00
2022-08-04T16:04:00.918Z,1.00
2022-08-04T16:06:29.635Z,1.00
2022-08-04T16:09:00.956Z,1.00
2022-08-04T16:11:32.588Z,1.00
2022-08-04T16:13:59.791Z,1.00
2022-08-04T16:16:39.485Z,1.00
2022-08-04T16:19:06.045Z,1.00
2022-08-04T16:21:33.588Z,1.00
2022-08-04T16:24:08.505Z,1.00
2022-08-04T16:26:42.260Z,1.00
2022-08-04T16:29:31.145Z,1.00
2022-08-04T16:32:13.083Z,1.00
2022-08-04T16:34:54.246Z,1.00
2022-08-04T16:37:42.839Z,1.00
2022-08-04T16:40:33.650Z,1.00
2022-08-04T16:43:03.031Z,1.00
2022-08-04T16:45:39.502Z,1.00
2022-08-04T16:48:10.384Z,1.00
2022-08-04T16:50:52.134Z,1.00
2022-08-04T16:54:04.285Z,1.00
2022-08-04T16:56:06.951Z,1.00
2022-08-04T16:58:36.880Z,1.00
2022-08-04T17:01:10.788Z,1.00
2022-08-04T17:03:56.135Z,1.00
2022-08-04T17:06:33.049Z,1.00
2022-08-04T17:09:04.807Z,1.00
2022-08-04T17:11:35.059Z,1.00
2022-08-04T17:14:05.070Z,1.00
2022-08-04T17:16:33.334Z,1.00
2022-08-04T17:18:59.903Z,1.00
2022-08-04T17:21:28.903Z,1.00
2022-08-04T17:24:13.427Z,1.00
2022-08-04T17:26:54.556Z,1.00
2022-08-04T17:29:44.794Z,1.00
2022-08-04T17:32:15.442Z,1.00
2022-08-04T17:34:45.918Z,1.00
2022-08-04T17:37:38.071Z,1.00
2022-08-04T17:40:06.731Z,1.00
2022-08-04T17:42:39.124Z,1.00
2022-08-04T17:45:50.276Z,1.00
2022-08-04T17:47:57.516Z,1.00
2022-08-04T17:50:25.578Z,1.00
2022-08-04T17:52:58.822Z,1.00
2022-08-04T17:55:25.465Z,1.00
2022-08-04T17:58:13.694Z,1.00
2022-08-04T18:00:52.116Z,1.00
2022-08-04T18:06:14.623Z,1.00
2022-08-04T18:08:45.999Z,1.00
2022-08-04T18:11:22.010Z,1.00
2022-08-04T18:13:53.006Z,1.00
2022-08-04T18:16:22.395Z,1.00
2022-08-04T18:19:09.044Z,1.00
2022-08-04T18:21:46.730Z,1.00
2022-08-04T18:24:22.212Z,1.00
2022-08-04T18:30:33.255Z,1.00
2022-08-04T18:32:37.467Z,1.00
2022-08-04T18:35:18.150Z,1.00
2022-08-04T18:38:05.263Z,1.00
2022-08-04T18:40:40.573Z,1.00
2022-08-04T18:43:17.928Z,1.00
2022-08-04T18:45:55.346Z,1.00
2022-08-04T18:48:22.295Z,1.00
2022-08-04T18:51:22.393Z,1.00
2022-08-04T18:53:55.515Z,1.00
2022-08-04T18:56:31.885Z,1.00
2022-08-04T18:59:00.945Z,1.00
2022-08-04T19:01:29.647Z,1.00
2022-08-04T19:03:57.660Z,1.00
2022-08-04T19:06:43.827Z,1.00
2022-08-04T19:09:20.804Z,1.00
2022-08-04T19:11:54.526Z,1.00
2022-08-04T19:14:22.256Z,1.00
2022-08-04T19:16:49.294Z,1.00
2022-08-04T19:19:17.831Z,1.00
2022-08-04T19:22:00.033Z,1.00
2022-08-04T19:24:34.333Z,1.00
2022-08-04T19:27:07.293Z,1.00
2022-08-04T19:29:37.683Z,1.00
2022-08-04T19:32:15.113Z,1.00
2022-08-04T19:34:46.318Z,1.00
2022-08-04T19:37:18.136Z,1.00
2022-08-04T19:40:00.075Z,1.00
2022-08-04T19:42:26.933Z,1.00
2022-08-04T19:44:53.684Z,1.00
2022-08-04T19:50:10.724Z,1.00
2022-08-04T19:52:38.204Z,1.00
2022-08-04T19:55:09.878Z,1.00
2022-08-04T19:57:43.875Z,1.00
2022-08-04T20:00:14.233Z,1.00
2022-08-04T20:02:41.897Z,1.00
2022-08-04T20:05:08.873Z,1.00
2022-08-04T20:07:35.664Z,1.00
2022-08-04T20:10:04.210Z,1.00
2022-08-04T20:12:31.327Z,1.00
2022-08-04T20:14:57.932Z,1.00
2022-08-04T20:18:07.034Z,1.00
2022-08-04T20:20:13.538Z,1.00
2022-08-04T20:22:50.734Z,1.00
2022-08-04T20:25:37.194Z,1.00
2022-08-04T20:28:04.927Z,1.00
2022-08-04T20:30:33.195Z,1.00
2022-08-04T20:33:01.289Z,1.00
2022-08-04T20:35:28.769Z,1.00
2022-08-04T20:38:00.207Z,1.00
2022-08-04T20:40:28.025Z,1.00
2022-08-04T20:42:54.720Z,1.00
2022-08-04T20:45:24.001Z,1.00
2022-08-04T20:48:10.579Z,1.00
2022-08-04T20:50:37.529Z,1.00
2022-08-04T20:53:05.590Z,1.00
2022-08-04T20:55:55.466Z,1.00
2022-08-04T20:58:27.343Z,1.00
2022-08-04T21:00:55.017Z,1.00
2022-08-04T21:03:38.750Z,1.00
2022-08-04T21:06:08.797Z,1.00
2022-08-04T21:08:35.391Z,1.00
2022-08-04T21:11:03.273Z,1.00
2022-08-04T21:13:50.761Z,1.00
2022-08-04T21:16:53.918Z,1.00
2022-08-04T21:19:05.992Z,1.00
2022-08-04T21:21:40.231Z,1.00
2022-08-04T21:24:07.113Z,1.00
2022-08-04T21:26:33.746Z,1.00
2022-08-04T21:29:00.370Z,1.00
2022-08-04T21:31:27.303Z,1.00
2022-08-04T21:33:54.471Z,1.00
2022-08-04T21:36:27.327Z,1.00
2022-08-04T21:38:54.363Z,1.00
2022-08-04T21:41:24.848Z,1.00
2022-08-04T21:43:53.781Z,1.00
2022-08-04T21:46:20.818Z,1.00
2022-08-04T21:48:48.598Z,1.00
2022-08-04T21:51:56.855Z,1.00
2022-08-04T21:54:04.517Z,1.00
2022-08-04T21:56:32.454Z,1.00
2022-08-04T21:58:59.217Z,1.00
2022-08-04T22:01:50.359Z,1.00
2022-08-04T22:04:13.364Z,1.00
2022-08-04T22:06:40.118Z,1.00
2022-08-04T22:09:14.364Z,1.00
2022-08-04T22:11:50.850Z,1.00
2022-08-04T22:14:27.549Z,1.00
2022-08-04T22:17:00.684Z,1.00
2022-08-04T22:19:50.180Z,1.00
2022-08-04T22:22:25.182Z,1.00
2022-08-04T22:24:59.930Z,1.00
2022-08-04T22:27:47.341Z,1.00
2022-08-04T22:30:17.602Z,1.00
2022-08-04T22:32:47.801Z,1.00
2022-08-04T22:35:30.897Z,1.00
2022-08-04T22:38:07.208Z,1.00
2022-08-04T22:40:47.472Z,1.00
2022-08-04T22:43:32.419Z,1.00
2022-08-04T22:46:01.902Z,1.00
2022-08-04T22:48:31.978Z,1.00
2022-08-04T22:50:59.516Z,1.00
2022-08-04T22:53:26.145Z,1.00
2022-08-04T22:56:06.415Z,1.00
2022-08-04T22:58:34.901Z,1.00
2022-08-04T23:01:01.792Z,1.00
2022-08-04T23:03:36.461Z,1.00
2022-08-04T23:06:06.251Z,1.00
2022-08-04T23:08:34.152Z,1.00
2022-08-04T23:11:06.970Z,1.00
2022-08-04T23:13:33.545Z,1.00
2022-08-04T23:16:03.732Z,1.00
2022-08-04T23:18:30.356Z,1.00
2022-08-04T23:20:59.463Z,1.00
2022-08-04T23:23:26.931Z,1.00
2022-08-04T23:26:07.127Z,1.00
2022-08-04T23:28:35.340Z,1.00
2022-08-04T23:31:02.995Z,1.00
2022-08-04T23:33:49.363Z,1.00
2022-08-04T23:36:16.622Z,1.00
2022-08-04T23:38:43.337Z,1.00
2022-08-04T23:41:13.774Z,1.00
2022-08-04T23:43:55.354Z,1.00
2022-08-04T23:46:22.656Z,1.00
2022-08-04T23:48:49.531Z,1.00
2022-08-04T23:51:16.604Z,1.00
2022-08-04T23:54:02.213Z,1.00
2022-08-04T23:56:31.853Z,1.00
2022-08-04T23:58:58.783Z,1.00
